Time;durP1;ratioP1;P1;durP2;ratioP2;P2;SDS_P1;SDS_P2;PMS_P1;PMS_P2;Temp;Humidity;BMP_temperature;BMP_pressure;BME280_temperature;BME280_humidity;BME280_pressure;Samples;Min_cycle;Max_cycle;Signal;HPM_P1;HPM_P2
2021/12/11 00:02:13;;;;;;;23.00;16.70;;;;;;;;;;106123;1289;64841;-29
2021/12/11 00:04:41;;;;;;;20.80;15.60;;;;;;;;;;106021;1289;64820;-24
2021/12/11 00:07:10;;;;;;;24.40;15.90;;;;;;;;;;106090;1287;64771;-25
2021/12/11 00:09:40;;;;;;;21.60;16.10;;;;;;;;;;106104;1287;64890;-30
2021/12/11 00:12:10;;;;;;;20.90;15.20;;;;;;;;;;106057;1289;64839;-27
2021/12/11 00:14:40;;;;;;;22.60;15.90;;;;;;;;;;106107;1292;64900;-25
2021/12/11 00:17:07;;;;;;;20.70;14.80;;;;;;;;;;106119;1290;64960;-25
2021/12/11 00:19:36;;;;;;;21.50;15.30;;;;;;;;;;106172;1291;64853;-27
2021/12/11 00:22:07;;;;;;;23.60;16.30;;;;;;;;;;106126;1287;64773;-29
2021/12/11 00:24:36;;;;;;;20.60;15.00;;;;;;;;;;106155;1288;64845;-23
2021/12/11 00:27:05;;;;;;;22.00;15.20;;;;;;;;;;106117;1291;64851;-24
2021/12/11 00:29:33;;;;;;;22.70;16.30;;;;;;;;;;106022;1289;64312;-29
2021/12/11 00:32:02;;;;;;;22.10;15.80;;;;;;;;;;106101;1292;64816;-29
2021/12/11 00:34:30;;;;;;;21.50;15.30;;;;;;;;;;106131;1287;64898;-24
2021/12/11 00:36:59;;;;;;;24.20;15.30;;;;;;;;;;106147;1291;64838;-24
2021/12/11 00:39:27;;;;;;;19.40;14.50;;;;;;;;;;106047;1293;64852;-24
2021/12/11 00:41:55;;;;;;;20.50;14.50;;;;;;;;;;106092;1289;64828;-24
2021/12/11 00:44:39;;;;;;;21.80;15.20;;;;;;;;;;106182;1292;64796;-23
2021/12/11 00:47:26;;;;;;;18.50;13.60;;;;;;;;;;106134;1289;64848;-29
2021/12/11 00:49:59;;;;;;;19.00;14.80;;;;;;;;;;106102;1279;63856;-29
2021/12/11 00:52:33;;;;;;;20.70;14.60;;;;;;;;;;106138;1291;64712;-29
2021/12/11 00:55:01;;;;;;;20.60;14.60;;;;;;;;;;106108;1289;64829;-28
2021/12/11 00:57:28;;;;;;;20.40;15.40;;;;;;;;;;106189;1286;64841;-36
2021/12/11 01:00:04;;;;;;;20.50;14.50;;;;;;;;;;106183;1286;64787;-25
2021/12/11 01:02:31;;;;;;;19.30;14.50;;;;;;;;;;106183;1286;64846;-24
2021/12/11 01:04:59;;;;;;;22.30;15.10;;;;;;;;;;106102;1292;64843;-23
2021/12/11 01:07:31;;;;;;;20.10;14.70;;;;;;;;;;106231;1286;64833;-22
2021/12/11 01:10:01;;;;;;;19.90;14.80;;;;;;;;;;106224;1289;64747;-30
2021/12/11 01:12:41;;;;;;;21.50;14.40;;;;;;;;;;106161;1286;64784;-28
2021/12/11 01:15:15;;;;;;;22.40;15.70;;;;;;;;;;106204;1289;64931;-24
2021/12/11 01:17:57;;;;;;;16.90;12.40;;;;;;;;;;106123;1288;64838;-24
2021/12/11 01:20:52;;;;;;;21.40;15.10;;;;;;;;;;106018;1289;64903;-32
2021/12/11 01:23:45;;;;;;;20.20;14.70;;;;;;;;;;106107;1292;64736;-30
2021/12/11 01:26:14;;;;;;;22.50;16.10;;;;;;;;;;106108;1291;64826;-29
2021/12/11 01:28:43;;;;;;;20.20;14.40;;;;;;;;;;106113;1292;64851;-27
2021/12/11 01:31:11;;;;;;;17.60;13.80;;;;;;;;;;106120;1290;64748;-31
2021/12/11 01:33:39;;;;;;;21.40;15.00;;;;;;;;;;106097;1286;64952;-28
2021/12/11 01:36:07;;;;;;;18.20;13.60;;;;;;;;;;106107;1292;64945;-28
2021/12/11 01:38:35;;;;;;;21.20;14.20;;;;;;;;;;106177;1291;64844;-28
2021/12/11 01:41:07;;;;;;;19.60;14.40;;;;;;;;;;106133;1292;64770;-28
2021/12/11 01:43:37;;;;;;;38.50;22.20;;;;;;;;;;106136;1291;64865;-25
2021/12/11 01:46:05;;;;;;;49.70;26.90;;;;;;;;;;106005;1290;65018;-28
2021/12/11 01:48:38;;;;;;;47.70;24.20;;;;;;;;;;106114;1288;64941;-28
2021/12/11 01:51:09;;;;;;;46.20;24.60;;;;;;;;;;106007;1289;64868;-28
2021/12/11 01:53:41;;;;;;;25.40;15.30;;;;;;;;;;106080;1291;64732;-28
2021/12/11 01:56:10;;;;;;;23.40;15.10;;;;;;;;;;106189;1289;64808;-27
2021/12/11 01:58:40;;;;;;;24.00;14.90;;;;;;;;;;106130;1289;64773;-29
2021/12/11 02:01:12;;;;;;;23.50;16.50;;;;;;;;;;106078;1287;64849;-29
2021/12/11 02:03:40;;;;;;;24.70;15.10;;;;;;;;;;106099;1288;64766;-26
2021/12/11 02:06:07;;;;;;;22.50;15.00;;;;;;;;;;106107;1290;64833;-25
2021/12/11 02:08:36;;;;;;;20.00;13.80;;;;;;;;;;106074;1291;64904;-25
2021/12/11 02:11:08;;;;;;;20.50;13.70;;;;;;;;;;106154;1290;64735;-26
2021/12/11 02:13:41;;;;;;;19.50;14.20;;;;;;;;;;106131;1291;64806;-28
2021/12/11 02:16:08;;;;;;;;;;;;;;;;;;106087;1292;64901;-29
2021/12/11 02:18:43;;;;;;;19.90;13.10;;;;;;;;;;106121;1291;64779;-26
2021/12/11 02:21:12;;;;;;;21.50;14.80;;;;;;;;;;106016;1288;64829;-25
2021/12/11 02:23:40;;;;;;;19.90;13.80;;;;;;;;;;106091;1288;65473;-28
2021/12/11 02:26:10;;;;;;;21.70;14.20;;;;;;;;;;106103;1291;64893;-28
2021/12/11 02:28:40;;;;;;;19.20;13.60;;;;;;;;;;106118;1287;64847;-26
2021/12/11 02:31:11;;;;;;;18.60;13.20;;;;;;;;;;106071;1289;64929;-26
2021/12/11 02:33:53;;;;;;;19.80;13.00;;;;;;;;;;106111;1289;64774;-30
2021/12/11 02:36:26;;;;;;;18.80;13.60;;;;;;;;;;106093;1288;64721;-30
2021/12/11 02:39:17;;;;;;;18.70;13.10;;;;;;;;;;106104;1289;64871;-29
2021/12/11 02:41:59;;;;;;;19.20;13.00;;;;;;;;;;106117;1287;64771;-29
2021/12/11 02:44:29;;;;;;;18.70;14.20;;;;;;;;;;106134;1286;64799;-26
2021/12/11 02:46:59;;;;;;;20.20;12.50;;;;;;;;;;106093;1289;65027;-25
2021/12/11 02:49:38;;;;;;;17.70;12.80;;;;;;;;;;106148;1290;64879;-25
2021/12/11 02:52:16;;;;;;;18.70;13.70;;;;;;;;;;106106;1287;64844;-26
2021/12/11 02:54:45;;;;;;;18.10;13.00;;;;;;;;;;106003;1290;64938;-26
2021/12/11 02:57:16;;;;;;;22.10;13.80;;;;;;;;;;106090;1290;64839;-26
2021/12/11 02:59:45;;;;;;;18.20;13.30;;;;;;;;;;106136;1290;64818;-26
2021/12/11 03:02:14;;;;;;;19.50;13.50;;;;;;;;;;106112;1288;64776;-26
2021/12/11 03:04:51;;;;;;;17.50;12.70;;;;;;;;;;106120;1287;64865;-25
2021/12/11 03:07:25;;;;;;;17.70;12.60;;;;;;;;;;106089;1288;64775;-26
2021/12/11 03:09:55;;;;;;;19.00;13.60;;;;;;;;;;106140;1287;64833;-31
2021/12/11 03:12:22;;;;;;;17.60;12.10;;;;;;;;;;106098;1287;64771;-29
2021/12/11 03:14:49;;;;;;;18.50;13.30;;;;;;;;;;106047;1291;64831;-29
2021/12/11 03:17:17;;;;;;;17.80;12.80;;;;;;;;;;105996;1288;64852;-29
2021/12/11 03:19:46;;;;;;;18.40;13.40;;;;;;;;;;106159;1290;64738;-29
2021/12/11 03:22:18;;;;;;;16.10;12.70;;;;;;;;;;106119;1289;64729;-29
2021/12/11 03:24:45;;;;;;;18.10;13.10;;;;;;;;;;106111;1289;64865;-30
2021/12/11 03:27:12;;;;;;;18.90;13.70;;;;;;;;;;106072;1290;64850;-29
2021/12/11 03:29:40;;;;;;;18.40;12.30;;;;;;;;;;106124;1290;64939;-29
2021/12/11 03:32:09;;;;;;;17.20;12.90;;;;;;;;;;105938;1289;64880;-29
2021/12/11 03:34:36;;;;;;;17.60;12.30;;;;;;;;;;106110;1287;64737;-29
2021/12/11 03:37:05;;;;;;;17.70;12.10;;;;;;;;;;106132;1286;64761;-28
2021/12/11 03:39:34;;;;;;;18.20;12.50;;;;;;;;;;106133;1288;64843;-26
2021/12/11 03:42:04;;;;;;;17.90;13.00;;;;;;;;;;106083;1288;64862;-26
2021/12/11 03:44:33;;;;;;;17.50;12.30;;;;;;;;;;106116;1287;64841;-26
2021/12/11 03:47:06;;;;;;;16.70;13.10;;;;;;;;;;106104;1289;64882;-25
2021/12/11 03:49:33;;;;;;;17.90;12.70;;;;;;;;;;106163;1288;65003;-29
2021/12/11 03:52:01;;;;;;;18.70;12.90;;;;;;;;;;106111;1286;64757;-29
2021/12/11 03:54:30;;;;;;;17.60;11.90;;;;;;;;;;106118;1288;64833;-24
2021/12/11 03:56:57;;;;;;;18.30;12.60;;;;;;;;;;106115;1290;64978;-25
2021/12/11 03:59:24;;;;;;;17.90;12.10;;;;;;;;;;106031;1291;64878;-30
2021/12/11 04:01:56;;;;;;;18.20;12.70;;;;;;;;;;106129;1288;64909;-29
2021/12/11 04:04:36;;;;;;;19.60;13.20;;;;;;;;;;106111;1289;64862;-28
2021/12/11 04:07:04;;;;;;;19.20;13.30;;;;;;;;;;106118;1289;64801;-29
2021/12/11 04:09:31;;;;;;;17.90;12.40;;;;;;;;;;106167;1287;64895;-25
2021/12/11 04:11:59;;;;;;;17.80;12.80;;;;;;;;;;106118;1288;64814;-26
2021/12/11 04:14:30;;;;;;;16.90;11.60;;;;;;;;;;105922;1290;64988;-26
2021/12/11 04:16:58;;;;;;;17.70;12.40;;;;;;;;;;106152;1290;64851;-24
2021/12/11 04:19:25;;;;;;;17.60;12.90;;;;;;;;;;106138;1287;64856;-25
2021/12/11 04:21:53;;;;;;;17.70;12.40;;;;;;;;;;106094;1287;64775;-26
2021/12/11 04:24:23;;;;;;;17.40;12.30;;;;;;;;;;106121;1287;64825;-30
2021/12/11 04:26:51;;;;;;;17.90;12.50;;;;;;;;;;105972;1290;64800;-29
2021/12/11 04:29:18;;;;;;;16.50;12.40;;;;;;;;;;106094;1291;64853;-31
2021/12/11 04:31:47;;;;;;;16.40;11.30;;;;;;;;;;106077;1291;64837;-29
2021/12/11 04:34:15;;;;;;;16.60;12.40;;;;;;;;;;106170;1290;64917;-25
2021/12/11 04:36:45;;;;;;;17.40;12.10;;;;;;;;;;106117;1287;64875;-26
2021/12/11 04:39:14;;;;;;;15.60;11.30;;;;;;;;;;106127;1287;64966;-28
2021/12/11 04:41:51;;;;;;;17.60;12.60;;;;;;;;;;106162;1288;64811;-29
2021/12/11 04:44:22;;;;;;;15.70;11.60;;;;;;;;;;106125;1287;64749;-29
2021/12/11 04:46:49;;;;;;;17.90;12.60;;;;;;;;;;106144;1287;64865;-25
2021/12/11 04:49:34;;;;;;;17.00;11.80;;;;;;;;;;106145;1288;64862;-26
2021/12/11 04:52:10;;;;;;;17.40;11.50;;;;;;;;;;106108;1290;64803;-26
2021/12/11 04:59:50;;;;;;;17.90;11.30;;;;;;;;;;106131;1287;64843;-32
2021/12/11 05:10:43;;;;;;;16.10;11.20;;;;;;;;;;105588;1294;64852;-26
2021/12/11 05:13:10;;;;;;;17.00;12.00;;;;;;;;;;106134;1287;64767;-25
2021/12/11 05:15:40;;;;;;;17.00;12.40;;;;;;;;;;106077;1291;64875;-39
2021/12/11 05:18:09;;;;;;;15.90;11.20;;;;;;;;;;106132;1287;64855;-30
2021/12/11 05:20:37;;;;;;;17.30;12.40;;;;;;;;;;106128;1290;64872;-29
2021/12/11 05:23:04;;;;;;;17.70;12.10;;;;;;;;;;106096;1287;64848;-38
2021/12/11 05:25:31;;;;;;;18.30;12.30;;;;;;;;;;106077;1287;64773;-25
2021/12/11 05:27:58;;;;;;;18.00;12.60;;;;;;;;;;106139;1288;64776;-25
2021/12/11 05:30:28;;;;;;;16.40;11.70;;;;;;;;;;106150;1287;64850;-24
2021/12/11 05:32:58;;;;;;;17.00;11.80;;;;;;;;;;106118;1288;64733;-25
2021/12/11 05:35:29;;;;;;;16.80;11.60;;;;;;;;;;106127;1290;64729;-29
2021/12/11 05:37:57;;;;;;;17.30;11.70;;;;;;;;;;106126;1287;64802;-29
2021/12/11 05:40:26;;;;;;;17.30;11.40;;;;;;;;;;106164;1290;64848;-25
2021/12/11 05:42:53;;;;;;;16.50;12.00;;;;;;;;;;106121;1287;64811;-25
2021/12/11 05:45:21;;;;;;;16.90;11.70;;;;;;;;;;106089;1290;64715;-25
2021/12/11 05:47:48;;;;;;;14.40;10.80;;;;;;;;;;106150;1286;64744;-26
2021/12/11 05:50:19;;;;;;;17.50;12.60;;;;;;;;;;106127;1286;64749;-30
2021/12/11 05:52:48;;;;;;;15.40;11.60;;;;;;;;;;106101;1288;64987;-28
2021/12/11 05:55:17;;;;;;;16.70;11.70;;;;;;;;;;106114;1290;64680;-25
2021/12/11 05:57:51;;;;;;;17.30;11.40;;;;;;;;;;106120;1287;64739;-25
2021/12/11 06:00:17;;;;;;;;;;;;;;;;;;106149;1287;64985;-29
2021/12/11 06:02:45;;;;;;;17.20;11.40;;;;;;;;;;106133;1287;64817;-29
2021/12/11 06:05:12;;;;;;;17.10;11.20;;;;;;;;;;106079;1289;64866;-29
2021/12/11 06:07:43;;;;;;;15.80;11.20;;;;;;;;;;106107;1287;64878;-29
2021/12/11 06:10:12;;;;;;;17.20;11.70;;;;;;;;;;106116;1288;64778;-25
2021/12/11 06:12:40;;;;;;;17.60;12.10;;;;;;;;;;106105;1288;64842;-25
2021/12/11 06:15:07;;;;;;;18.10;11.90;;;;;;;;;;106114;1286;65025;-29
2021/12/11 06:17:34;;;;;;;16.10;11.70;;;;;;;;;;106156;1287;64811;-29
2021/12/11 06:20:05;;;;;;;18.40;11.80;;;;;;;;;;106168;1291;64731;-29
2021/12/11 06:22:33;;;;;;;17.20;12.20;;;;;;;;;;106142;1287;64972;-27
2021/12/11 06:25:03;;;;;;;18.30;11.90;;;;;;;;;;106185;1287;64942;-26
2021/12/11 06:27:30;;;;;;;16.60;11.10;;;;;;;;;;105806;1288;441332;-26
2021/12/11 06:29:58;;;;;;;16.50;11.80;;;;;;;;;;105961;1287;64752;-30
2021/12/11 06:32:25;;;;;;;17.80;11.70;;;;;;;;;;106103;1291;64853;-30
2021/12/11 06:34:53;;;;;;;16.60;11.80;;;;;;;;;;106084;1281;64776;-26
2021/12/11 06:37:21;;;;;;;17.40;12.00;;;;;;;;;;106149;1288;64911;-24
2021/12/11 06:39:49;;;;;;;16.30;11.20;;;;;;;;;;106141;1288;64861;-25
2021/12/11 06:42:17;;;;;;;17.30;11.90;;;;;;;;;;106128;1287;64879;-27
2021/12/11 06:44:45;;;;;;;15.40;10.70;;;;;;;;;;106121;1288;64934;-27
2021/12/11 06:47:14;;;;;;;17.20;11.70;;;;;;;;;;106182;1287;64948;-26
2021/12/11 06:49:42;;;;;;;17.80;12.30;;;;;;;;;;106165;1287;64778;-25
2021/12/11 06:52:11;;;;;;;17.50;10.70;;;;;;;;;;105979;1288;64822;-25
2021/12/11 06:54:40;;;;;;;14.50;10.50;;;;;;;;;;106135;1287;65064;-30
2021/12/11 06:57:06;;;;;;;16.60;11.70;;;;;;;;;;105986;1290;64836;-29
2021/12/11 06:59:34;;;;;;;18.30;11.30;;;;;;;;;;106142;1287;64874;-25
2021/12/11 07:02:02;;;;;;;16.40;11.10;;;;;;;;;;106175;1287;64826;-25
2021/12/11 07:04:29;;;;;;;14.70;10.90;;;;;;;;;;106108;1281;64816;-26
2021/12/11 07:06:56;;;;;;;16.70;11.10;;;;;;;;;;106141;1287;64892;-26
2021/12/11 07:09:25;;;;;;;17.10;11.70;;;;;;;;;;106131;1288;64858;-26
2021/12/11 07:11:53;;;;;;;16.00;10.90;;;;;;;;;;106086;1288;64841;-25
2021/12/11 07:14:21;;;;;;;17.60;11.10;;;;;;;;;;106142;1287;64848;-25
2021/12/11 07:16:48;;;;;;;17.50;11.30;;;;;;;;;;105985;1280;64984;-25
2021/12/11 07:19:16;;;;;;;16.30;11.60;;;;;;;;;;106173;1287;64848;-29
2021/12/11 07:21:43;;;;;;;16.50;12.10;;;;;;;;;;106148;1287;64882;-29
2021/12/11 07:24:11;;;;;;;15.70;11.40;;;;;;;;;;106125;1287;65019;-25
2021/12/11 07:26:38;;;;;;;19.10;12.10;;;;;;;;;;106137;1288;64850;-25
2021/12/11 07:29:08;;;;;;;17.30;11.20;;;;;;;;;;106189;1287;64804;-29
2021/12/11 07:31:36;;;;;;;16.00;10.70;;;;;;;;;;106162;1290;64874;-29
2021/12/11 07:34:03;;;;;;;15.70;11.50;;;;;;;;;;106129;1287;64906;-29
2021/12/11 07:36:30;;;;;;;17.70;12.10;;;;;;;;;;106130;1287;64858;-29
2021/12/11 07:39:00;;;;;;;15.60;10.90;;;;;;;;;;106114;1287;64680;-30
2021/12/11 07:41:27;;;;;;;16.40;11.60;;;;;;;;;;106165;1288;64819;-26
2021/12/11 07:43:54;;;;;;;17.70;11.80;;;;;;;;;;105996;1287;65185;-29
2021/12/11 07:46:23;;;;;;;17.30;11.70;;;;;;;;;;106098;1287;64851;-31
2021/12/11 07:48:51;;;;;;;16.10;11.50;;;;;;;;;;106169;1288;64812;-28
2021/12/11 07:51:19;;;;;;;17.20;11.80;;;;;;;;;;106132;1287;64752;-30
2021/12/11 07:53:46;;;;;;;16.90;11.20;;;;;;;;;;106158;1287;64813;-29
2021/12/11 07:56:14;;;;;;;15.30;11.40;;;;;;;;;;106107;1287;64813;-29
2021/12/11 07:58:40;;;;;;;16.90;11.80;;;;;;;;;;105977;1289;64775;-28
2021/12/11 08:01:08;;;;;;;16.40;11.60;;;;;;;;;;106103;1287;64771;-29
2021/12/11 08:03:37;;;;;;;16.00;11.50;;;;;;;;;;106121;1287;64736;-28
2021/12/11 08:06:06;;;;;;;18.80;12.40;;;;;;;;;;106114;1287;64773;-29
2021/12/11 08:08:33;;;;;;;15.60;11.50;;;;;;;;;;106133;1287;64696;-26
2021/12/11 08:11:02;;;;;;;17.30;11.80;;;;;;;;;;106161;1287;64906;-26
2021/12/11 08:13:30;;;;;;;16.50;11.10;;;;;;;;;;106104;1287;64889;-29
2021/12/11 08:15:57;;;;;;;14.90;10.60;;;;;;;;;;106163;1287;64964;-29
2021/12/11 08:18:26;;;;;;;15.80;11.20;;;;;;;;;;106125;1290;64752;-24
2021/12/11 08:20:54;;;;;;;17.00;11.40;;;;;;;;;;106139;1287;64750;-26
2021/12/11 08:23:22;;;;;;;17.20;12.00;;;;;;;;;;106106;1288;64932;-25
2021/12/11 08:25:51;;;;;;;17.00;10.90;;;;;;;;;;106170;1289;64848;-25
2021/12/11 08:28:21;;;;;;;17.60;12.10;;;;;;;;;;106151;1290;64746;-26
2021/12/11 08:30:49;;;;;;;17.70;11.80;;;;;;;;;;105965;1287;64868;-28
2021/12/11 08:33:17;;;;;;;15.90;11.20;;;;;;;;;;105959;1290;64843;-28
2021/12/11 08:35:46;;;;;;;15.80;10.60;;;;;;;;;;106198;1287;66020;-29
2021/12/11 08:38:14;;;;;;;15.10;10.70;;;;;;;;;;106151;1287;64709;-30
2021/12/11 08:40:43;;;;;;;16.20;11.90;;;;;;;;;;106109;1288;64816;-25
2021/12/11 08:43:12;;;;;;;15.70;11.00;;;;;;;;;;106124;1287;64753;-25
2021/12/11 08:45:49;;;;;;;16.60;11.00;;;;;;;;;;106147;1287;64850;-25
2021/12/11 08:48:18;;;;;;;14.50;10.50;;;;;;;;;;106142;1287;64980;-26
2021/12/11 08:50:49;;;;;;;16.80;12.30;;;;;;;;;;105982;1290;64748;-25
2021/12/11 08:53:18;;;;;;;16.70;11.40;;;;;;;;;;106119;1287;64866;-26
2021/12/11 08:55:51;;;;;;;16.80;11.60;;;;;;;;;;106117;1288;64795;-25
2021/12/11 08:58:18;;;;;;;16.70;12.00;;;;;;;;;;106130;1287;64947;-25
2021/12/11 09:00:49;;;;;;;16.10;11.60;;;;;;;;;;106130;1287;64741;-25
2021/12/11 09:03:37;;;;;;;16.70;11.30;;;;;;;;;;106157;1287;64844;-29
2021/12/11 09:06:10;;;;;;;14.90;10.30;;;;;;;;;;106109;1288;64844;-27
2021/12/11 09:08:41;;;;;;;17.40;11.80;;;;;;;;;;106156;1287;64850;-28
2021/12/11 09:11:14;;;;;;;18.20;11.30;;;;;;;;;;106069;1284;64801;-29
2021/12/11 09:13:44;;;;;;;24.60;15.60;;;;;;;;;;106134;1287;64772;-23
2021/12/11 09:16:14;;;;;;;20.30;13.80;;;;;;;;;;106106;1287;64877;-23
2021/12/11 09:18:44;;;;;;;17.90;13.30;;;;;;;;;;106124;1287;64736;-24
2021/12/11 09:21:20;;;;;;;19.20;12.30;;;;;;;;;;106090;1288;64903;-26
2021/12/11 09:23:54;;;;;;;22.00;13.90;;;;;;;;;;105954;1289;64949;-28
2021/12/11 09:26:25;;;;;;;26.50;17.40;;;;;;;;;;105931;1291;64466;-28
2021/12/11 09:29:01;;;;;;;25.70;14.50;;;;;;;;;;106126;1287;64737;-32
2021/12/11 09:31:32;;;;;;;20.70;13.90;;;;;;;;;;106129;1287;64747;-30
2021/12/11 09:34:06;;;;;;;19.80;13.00;;;;;;;;;;106130;1287;64780;-25
2021/12/11 09:36:36;;;;;;;19.10;12.30;;;;;;;;;;105884;1287;64776;-28
2021/12/11 09:39:16;;;;;;;19.70;12.20;;;;;;;;;;106124;1287;64807;-28
2021/12/11 09:41:43;;;;;;;23.20;14.50;;;;;;;;;;106099;1287;64880;-28
2021/12/11 09:44:15;;;;;;;19.60;13.20;;;;;;;;;;106126;1287;64840;-25
2021/12/11 09:46:51;;;;;;;20.10;14.30;;;;;;;;;;106119;1287;64772;-26
2021/12/11 09:49:20;;;;;;;20.20;12.90;;;;;;;;;;105938;1289;64850;-30
2021/12/11 09:51:49;;;;;;;19.50;12.90;;;;;;;;;;106162;1287;64756;-28
2021/12/11 09:54:19;;;;;;;17.30;12.20;;;;;;;;;;106145;1291;64777;-28
2021/12/11 09:56:54;;;;;;;20.00;12.60;;;;;;;;;;105954;1291;64960;-29
2021/12/11 09:59:22;;;;;;;22.90;16.00;;;;;;;;;;106135;1291;64940;-26
2021/12/11 10:01:53;;;;;;;21.00;13.30;;;;;;;;;;106087;1287;64835;-29
2021/12/11 10:04:28;;;;;;;19.20;13.40;;;;;;;;;;105873;1290;64906;-25
2021/12/11 10:09:26;;;;;;;20.50;14.90;;;;;;;;;;106225;1280;64847;-29
2021/12/11 10:12:03;;;;;;;22.70;15.60;;;;;;;;;;106208;1286;64730;-29
2021/12/11 10:14:51;;;;;;;20.30;14.00;;;;;;;;;;106140;1288;64878;-26
2021/12/11 10:17:30;;;;;;;19.80;14.10;;;;;;;;;;106135;1288;64962;-26
2021/12/11 10:19:59;;;;;;;20.00;14.10;;;;;;;;;;105969;1288;64967;-26
2021/12/11 10:22:33;;;;;;;23.10;14.70;;;;;;;;;;106119;1287;64737;-25
2021/12/11 10:25:03;;;;;;;20.80;15.00;;;;;;;;;;105988;1291;64880;-28
2021/12/11 10:27:31;;;;;;;19.50;14.50;;;;;;;;;;106018;1291;64857;-26
2021/12/11 10:29:58;;;;;;;19.50;14.30;;;;;;;;;;105973;1290;64953;-27
2021/12/11 10:32:29;;;;;;;22.60;14.60;;;;;;;;;;105975;1288;64821;-28
2021/12/11 10:34:58;;;;;;;22.70;15.00;;;;;;;;;;106126;1287;64829;-26
2021/12/11 10:37:29;;;;;;;19.20;14.00;;;;;;;;;;106149;1287;64844;-25
2021/12/11 10:39:58;;;;;;;19.20;13.80;;;;;;;;;;106124;1288;64736;-25
2021/12/11 10:42:27;;;;;;;19.00;13.10;;;;;;;;;;105927;1290;64733;-25
2021/12/11 10:44:56;;;;;;;19.80;13.30;;;;;;;;;;105982;1290;65042;-34
2021/12/11 10:47:34;;;;;;;17.00;12.00;;;;;;;;;;106111;1287;64971;-28
2021/12/11 10:50:03;;;;;;;18.10;12.80;;;;;;;;;;106103;1287;64871;-25
2021/12/11 10:52:31;;;;;;;19.30;12.80;;;;;;;;;;105974;1290;64797;-24
2021/12/11 10:55:00;;;;;;;20.00;12.80;;;;;;;;;;105973;1289;64753;-26
2021/12/11 10:57:28;;;;;;;20.90;14.70;;;;;;;;;;106132;1288;64848;-27
2021/12/11 10:59:57;;;;;;;22.60;14.70;;;;;;;;;;106139;1287;65300;-25
2021/12/11 11:02:28;;;;;;;23.30;15.40;;;;;;;;;;105932;1290;64853;-25
2021/12/11 11:05:18;;;;;;;23.70;15.20;;;;;;;;;;105982;1287;64866;-25
2021/12/11 11:07:48;;;;;;;23.50;15.50;;;;;;;;;;105982;1291;64798;-26
2021/12/11 11:10:25;;;;;;;23.30;16.60;;;;;;;;;;105950;1292;64712;-28
2021/12/11 11:12:53;;;;;;;28.00;17.50;;;;;;;;;;105998;1288;64978;-29
2021/12/11 11:15:21;;;;;;;24.70;17.60;;;;;;;;;;106148;1290;66058;-28
2021/12/11 11:17:50;;;;;;;27.80;16.80;;;;;;;;;;106107;1287;64836;-28
2021/12/11 11:20:29;;;;;;;26.80;17.20;;;;;;;;;;105909;1287;64849;-24
2021/12/11 11:22:56;;;;;;;25.50;16.70;;;;;;;;;;106049;1287;65962;-28
2021/12/11 11:25:26;;;;;;;28.90;18.90;;;;;;;;;;106082;1287;64964;-28
2021/12/11 11:27:57;;;;;;;27.30;18.30;;;;;;;;;;106099;1288;64807;-25
2021/12/11 11:30:28;;;;;;;27.00;17.80;;;;;;;;;;105967;1288;64883;-24
2021/12/11 11:32:56;;;;;;;27.70;18.20;;;;;;;;;;106131;1287;64771;-24
2021/12/11 11:35:27;;;;;;;28.50;18.60;;;;;;;;;;105906;1290;65236;-25
2021/12/11 11:37:56;;;;;;;29.50;19.20;;;;;;;;;;106111;1287;64834;-24
2021/12/11 11:40:30;;;;;;;28.60;19.20;;;;;;;;;;106011;1288;64853;-25
2021/12/11 11:42:58;;;;;;;30.00;19.40;;;;;;;;;;105969;1290;64874;-26
2021/12/11 11:45:27;;;;;;;29.40;18.70;;;;;;;;;;105919;1291;66053;-25
2021/12/11 11:47:56;;;;;;;30.00;18.90;;;;;;;;;;106099;1280;64936;-28
2021/12/11 11:50:27;;;;;;;31.20;19.40;;;;;;;;;;106089;1288;64829;-27
2021/12/11 11:52:54;;;;;;;30.40;19.60;;;;;;;;;;106070;1288;64861;-28
2021/12/11 11:55:25;;;;;;;28.20;18.70;;;;;;;;;;106180;1288;64872;-27
2021/12/11 11:57:53;;;;;;;28.60;19.50;;;;;;;;;;106119;1291;64926;-25
2021/12/11 12:00:23;;;;;;;32.30;20.40;;;;;;;;;;106235;1287;64866;-25
2021/12/11 12:02:51;;;;;;;28.50;18.80;;;;;;;;;;106177;1288;64915;-30
2021/12/11 12:05:19;;;;;;;32.00;19.60;;;;;;;;;;106240;1288;64850;-27
2021/12/11 12:07:46;;;;;;;28.10;19.70;;;;;;;;;;106138;1287;64935;-25
2021/12/11 12:10:17;;;;;;;28.60;18.90;;;;;;;;;;106156;1288;64804;-25
2021/12/11 12:12:45;;;;;;;28.10;18.70;;;;;;;;;;106216;1289;64883;-26
2021/12/11 12:15:15;;;;;;;27.20;18.60;;;;;;;;;;106085;1289;65067;-28
2021/12/11 12:17:44;;;;;;;29.70;18.60;;;;;;;;;;106216;1287;64733;-25
2021/12/11 12:20:13;;;;;;;27.90;19.30;;;;;;;;;;106205;1286;64885;-25
2021/12/11 12:22:40;;;;;;;30.60;20.00;;;;;;;;;;106200;1287;64768;-28
2021/12/11 12:25:09;;;;;;;28.30;19.00;;;;;;;;;;106187;1287;64916;-28
2021/12/11 12:27:37;;;;;;;30.90;18.80;;;;;;;;;;106195;1290;64748;-26
2021/12/11 12:30:17;;;;;;;28.10;18.90;;;;;;;;;;106153;1288;64838;-25
2021/12/11 12:32:44;;;;;;;28.40;17.90;;;;;;;;;;105897;1287;64885;-25
2021/12/11 12:35:14;;;;;;;30.00;19.10;;;;;;;;;;105892;1286;64851;-25
2021/12/11 12:37:42;;;;;;;30.90;19.60;;;;;;;;;;106186;1289;64740;-27
2021/12/11 12:40:14;;;;;;;32.70;20.20;;;;;;;;;;106092;1288;64872;-29
2021/12/11 12:42:52;;;;;;;28.20;20.10;;;;;;;;;;106135;1287;65251;-25
2021/12/11 12:45:31;;;;;;;27.90;19.50;;;;;;;;;;106111;1288;64952;-26
2021/12/11 12:48:03;;;;;;;28.90;18.20;;;;;;;;;;105942;1290;64768;-25
2021/12/11 12:50:33;;;;;;;32.00;19.50;;;;;;;;;;105923;1291;64857;-26
2021/12/11 12:53:00;;;;;;;31.30;21.00;;;;;;;;;;105984;1287;64821;-29
2021/12/11 12:55:35;;;;;;;31.20;21.30;;;;;;;;;;106197;1285;64758;-27
2021/12/11 12:58:04;;;;;;;28.80;19.60;;;;;;;;;;106196;1288;64782;-25
2021/12/11 13:00:39;;;;;;;31.30;20.30;;;;;;;;;;106168;1285;64835;-25
2021/12/11 13:03:08;;;;;;;30.40;19.70;;;;;;;;;;106197;1289;64831;-28
2021/12/11 13:05:43;;;;;;;32.10;20.30;;;;;;;;;;106145;1288;64957;-28
2021/12/11 13:08:16;;;;;;;32.60;20.70;;;;;;;;;;106121;1290;64741;-28
2021/12/11 13:10:46;;;;;;;35.00;21.80;;;;;;;;;;106155;1289;64873;-27
2021/12/11 13:13:17;;;;;;;33.70;22.10;;;;;;;;;;106192;1280;64790;-27
2021/12/11 13:15:46;;;;;;;32.10;21.10;;;;;;;;;;105990;1280;64876;-27
2021/12/11 13:18:18;;;;;;;33.60;21.10;;;;;;;;;;106171;1284;64962;-27
2021/12/11 13:20:48;;;;;;;29.50;19.10;;;;;;;;;;106186;1286;64880;-29
2021/12/11 13:23:15;;;;;;;31.50;19.80;;;;;;;;;;106138;1286;64830;-25
2021/12/11 13:25:53;;;;;;;29.90;19.10;;;;;;;;;;106113;1289;64795;-28
2021/12/11 13:28:23;;;;;;;31.20;19.10;;;;;;;;;;106175;1289;64947;-25
2021/12/11 13:30:56;;;;;;;29.40;17.80;;;;;;;;;;106302;1285;64809;-28
2021/12/11 13:33:24;;;;;;;30.60;19.20;;;;;;;;;;106141;1288;64899;-24
2021/12/11 13:35:55;;;;;;;28.90;20.80;;;;;;;;;;106164;1288;64926;-28
2021/12/11 13:38:23;;;;;;;26.00;18.30;;;;;;;;;;106152;1289;64814;-24
2021/12/11 13:40:52;;;;;;;28.40;18.50;;;;;;;;;;106135;1286;64882;-24
2021/12/11 13:43:20;;;;;;;26.70;17.70;;;;;;;;;;106061;1288;64784;-23
2021/12/11 13:45:49;;;;;;;27.40;19.10;;;;;;;;;;106148;1289;64860;-24
2021/12/11 13:48:18;;;;;;;27.50;18.90;;;;;;;;;;105968;1291;64861;-24
2021/12/11 13:50:51;;;;;;;26.00;18.20;;;;;;;;;;106169;1290;64935;-25
2021/12/11 13:53:20;;;;;;;28.20;19.70;;;;;;;;;;106084;1290;66299;-27
2021/12/11 13:55:47;;;;;;;30.10;19.20;;;;;;;;;;105890;1291;66029;-27
2021/12/11 13:58:15;;;;;;;27.90;18.60;;;;;;;;;;106185;1287;64875;-25
2021/12/11 14:00:48;;;;;;;25.90;17.90;;;;;;;;;;106195;1288;64838;-24
2021/12/11 14:03:17;;;;;;;27.20;18.60;;;;;;;;;;106149;1291;64764;-28
2021/12/11 14:05:45;;;;;;;26.60;17.90;;;;;;;;;;106114;1291;64818;-27
2021/12/11 14:08:15;;;;;;;25.00;17.80;;;;;;;;;;106128;1287;65430;-25
2021/12/11 14:10:43;;;;;;;27.20;17.90;;;;;;;;;;106173;1289;64812;-24
2021/12/11 14:13:11;;;;;;;27.10;17.40;;;;;;;;;;106236;1285;64808;-27
2021/12/11 14:15:40;;;;;;;26.70;18.50;;;;;;;;;;106147;1288;64971;-26
2021/12/11 14:18:09;;;;;;;26.10;17.40;;;;;;;;;;106220;1289;64920;-24
2021/12/11 14:20:37;;;;;;;26.30;17.00;;;;;;;;;;106160;1289;64828;-25
2021/12/11 14:23:06;;;;;;;26.50;17.80;;;;;;;;;;106196;1285;64862;-24
2021/12/11 14:25:33;;;;;;;25.90;18.50;;;;;;;;;;106156;1285;64857;-24
2021/12/11 14:28:03;;;;;;;26.20;16.80;;;;;;;;;;105969;1289;295648;-25
2021/12/11 14:30:30;;;;;;;25.80;17.20;;;;;;;;;;106192;1286;64836;-25
2021/12/11 14:32:59;;;;;;;26.40;17.90;;;;;;;;;;106088;1291;64693;-25
2021/12/11 14:35:28;;;;;;;26.10;17.10;;;;;;;;;;106100;1288;65777;-24
2021/12/11 14:37:57;;;;;;;22.50;16.30;;;;;;;;;;106079;1291;64835;-27
2021/12/11 14:40:26;;;;;;;27.70;17.30;;;;;;;;;;106192;1290;64839;-26